Time;durP1;ratioP1;P1;durP2;ratioP2;P2;SDS_P1;SDS_P2;PMS_P1;PMS_P2;Temp;Humidity;BMP_temperature;BMP_pressure;BME280_temperature;BME280_humidity;BME280_pressure;Samples;Min_cycle;Max_cycle;Signal;HPM_P1;HPM_P2
2024/01/09 00:00:49;;;;;;;9.47;6.70;;;0.50;92.60;;;;;;4878481;29;20192;-71
2024/01/09 00:03:15;;;;;;;9.63;7.23;;;0.50;90.80;;;;;;4881090;29;20183;-68
2024/01/09 00:05:41;;;;;;;7.17;6.47;;;0.40;93.60;;;;;;4881494;29;20659;-71
2024/01/09 00:08:07;;;;;;;10.93;7.07;;;0.40;93.40;;;;;;4884880;29;20195;-72
2024/01/09 00:10:32;;;;;;;7.30;6.03;;;0.40;93.30;;;;;;4884417;29;20266;-70
2024/01/09 00:12:58;;;;;;;7.97;6.40;;;0.40;95.40;;;;;;4884177;29;20705;-71
2024/01/09 00:15:24;;;;;;;8.82;6.60;;;0.30;93.60;;;;;;4883937;29;20793;-72
2024/01/09 00:17:51;;;;;;;8.43;6.83;;;0.30;93.50;;;;;;4883679;29;20204;-71
2024/01/09 00:20:17;;;;;;;9.23;7.18;;;0.40;93.30;;;;;;4879036;29;20248;-71
2024/01/09 00:22:42;;;;;;;7.17;6.43;;;0.20;92.50;;;;;;4869883;29;20208;-71
2024/01/09 00:25:08;;;;;;;6.90;6.00;;;0.00;93.70;;;;;;4882433;29;20433;-72
2024/01/09 00:27:35;;;;;;;10.60;6.93;;;0.10;93.20;;;;;;4878454;29;20484;-71
2024/01/09 00:30:02;;;;;;;6.05;5.45;;;0.10;92.60;;;;;;4862394;29;20633;-71
2024/01/09 00:32:28;;;;;;;6.20;5.60;;;0.00;91.20;;;;;;4862322;29;20176;-70
2024/01/09 00:34:53;;;;;;;8.03;5.47;;;0.10;91.20;;;;;;4844725;29;20192;-70
2024/01/09 00:37:19;;;;;;;8.33;6.43;;;0.10;93.20;;;;;;4872690;29;20515;-71
2024/01/09 00:39:45;;;;;;;7.10;5.87;;;0.20;91.00;;;;;;4877970;29;20649;-71
2024/01/09 00:42:10;;;;;;;7.00;6.00;;;0.20;91.30;;;;;;4878521;29;20176;-73
2024/01/09 00:44:36;;;;;;;9.27;6.57;;;0.20;90.40;;;;;;4878165;29;20602;-70
2024/01/09 00:47:02;;;;;;;6.43;5.73;;;0.00;89.60;;;;;;4878571;29;20561;-71
2024/01/09 00:49:28;;;;;;;7.03;6.33;;;0.00;90.00;;;;;;4878499;29;20199;-71
2024/01/09 00:51:54;;;;;;;7.10;6.00;;;0.00;90.00;;;;;;4877854;29;20464;-70
2024/01/09 00:54:20;;;;;;;8.20;6.20;;;0.10;90.80;;;;;;4878788;29;20215;-71
2024/01/09 00:56:46;;;;;;;7.40;5.70;;;0.20;90.60;;;;;;4889268;29;20262;-71
2024/01/09 00:59:12;;;;;;;6.80;6.10;;;0.30;90.30;;;;;;4887315;29;20250;-71
2024/01/09 01:01:37;;;;;;;7.90;6.13;;;0.10;89.20;;;;;;4890370;29;20620;-71
2024/01/09 01:04:03;;;;;;;5.90;4.97;;;0.00;88.50;;;;;;4870957;29;20194;-71
2024/01/09 01:06:29;;;;;;;9.07;5.60;;;0.00;88.40;;;;;;4878632;29;20176;-72
2024/01/09 01:08:54;;;;;;;7.80;5.70;;;0.00;87.60;;;;;;4878100;29;20192;-71
2024/01/09 01:11:20;;;;;;;8.73;5.87;;;-0.10;90.10;;;;;;4878285;29;20176;-71
2024/01/09 01:13:47;;;;;;;7.03;5.67;;;-0.10;89.40;;;;;;4895567;29;20194;-71
2024/01/09 01:16:12;;;;;;;8.43;5.68;;;-0.20;90.90;;;;;;4897248;29;20214;-72
2024/01/09 01:18:39;;;;;;;7.87;5.37;;;-0.20;90.60;;;;;;4896506;29;20667;-71
2024/01/09 01:21:04;;;;;;;6.95;5.72;;;-0.20;91.30;;;;;;4897214;29;20185;-72
2024/01/09 01:23:30;;;;;;;6.30;5.00;;;-0.20;90.60;;;;;;4897090;29;20191;-71
2024/01/09 01:25:56;;;;;;;5.07;4.57;;;-0.10;92.10;;;;;;4898612;29;20191;-71
2024/01/09 01:28:21;;;;;;;7.43;6.07;;;-0.10;92.40;;;;;;4900641;29;20186;-72
2024/01/09 01:30:47;;;;;;;8.40;5.70;;;-0.10;90.80;;;;;;4899740;29;20179;-71
2024/01/09 01:33:13;;;;;;;7.57;5.23;;;-0.10;93.00;;;;;;4901233;29;20175;-72
2024/01/09 01:35:38;;;;;;;7.10;5.37;;;-0.20;90.80;;;;;;4895785;29;20231;-71
2024/01/09 01:38:04;;;;;;;5.87;5.30;;;-0.20;90.90;;;;;;4892790;29;20222;-72
2024/01/09 01:40:30;;;;;;;11.27;5.67;;;-0.20;92.30;;;;;;4899055;29;20506;-71
2024/01/09 01:42:57;;;;;;;6.80;5.47;;;-0.10;94.10;;;;;;4878401;29;20191;-71
2024/01/09 01:45:24;;;;;;;5.47;4.93;;;-0.10;92.10;;;;;;4881428;29;20188;-70
2024/01/09 01:47:51;;;;;;;12.25;6.47;;;-0.10;90.80;;;;;;4881467;29;20194;-72
2024/01/09 01:50:17;;;;;;;8.20;5.65;;;-0.10;90.20;;;;;;4882236;29;20221;-72
2024/01/09 01:52:45;;;;;;;5.70;5.27;;;-0.10;91.10;;;;;;4881484;29;20231;-72
2024/01/09 01:55:12;;;;;;;7.20;5.57;;;-0.10;90.00;;;;;;4899522;29;20440;-72
2024/01/09 01:57:40;;;;;;;7.93;5.35;;;-0.10;90.10;;;;;;4898987;29;20251;-71
2024/01/09 02:00:07;;;;;;;6.22;4.90;;;-0.10;88.00;;;;;;4865664;29;20569;-72
2024/01/09 02:02:35;;;;;;;7.00;5.55;;;-0.10;90.20;;;;;;4881532;29;20697;-73
2024/01/09 02:05:03;;;;;;;6.88;6.15;;;-0.10;89.40;;;;;;4884981;29;20212;-72
2024/01/09 02:07:33;;;;;;;5.80;5.30;;;0.00;88.50;;;;;;4889877;29;20219;-72
2024/01/09 02:09:58;;;;;;;12.82;5.50;;;0.00;87.40;;;;;;4897596;29;20180;-72
2024/01/09 02:12:25;;;;;;;7.17;5.60;;;0.00;87.50;;;;;;4880288;29;20192;-72
2024/01/09 02:14:50;;;;;;;5.63;5.05;;;0.00;86.40;;;;;;4892901;29;20184;-72
2024/01/09 02:17:16;;;;;;;8.80;5.80;;;0.10;87.20;;;;;;4895985;29;20236;-72
2024/01/09 02:19:42;;;;;;;7.93;6.30;;;0.10;88.00;;;;;;4864110;29;20203;-72
2024/01/09 02:22:08;;;;;;;7.47;5.50;;;0.00;88.50;;;;;;4896227;29;20439;-72
2024/01/09 02:24:33;;;;;;;5.70;5.20;;;0.00;88.00;;;;;;4889997;29;20275;-72
2024/01/09 02:27:19;;;;;;;6.00;4.80;;;0.10;85.80;;;;;;4881223;29;20633;-72
2024/01/09 02:29:49;;;;;;;7.45;5.60;;;0.10;85.80;;;;;;4882121;29;20278;-72
2024/01/09 02:32:19;;;;;;;6.40;5.50;;;0.10;84.10;;;;;;4889190;29;20180;-72
2024/01/09 02:34:46;;;;;;;6.47;5.28;;;0.20;90.40;;;;;;4871041;29;20180;-71
2024/01/09 02:37:12;;;;;;;5.57;4.90;;;0.30;86.30;;;;;;4898307;29;20633;-72
2024/01/09 02:39:38;;;;;;;5.53;4.80;;;0.20;86.70;;;;;;4884955;29;20207;-67
2024/01/09 02:42:04;;;;;;;6.80;5.23;;;0.10;85.20;;;;;;4899006;29;20199;-71
2024/01/09 02:44:30;;;;;;;6.38;5.10;;;-0.10;85.80;;;;;;4899572;29;20200;-72
2024/01/09 02:46:55;;;;;;;5.93;5.33;;;-0.10;91.80;;;;;;4867373;29;20192;-70
2024/01/09 02:49:21;;;;;;;6.73;5.27;;;0.00;89.30;;;;;;4885074;29;20196;-71
2024/01/09 02:51:47;;;;;;;7.47;6.07;;;-0.10;87.60;;;;;;4879653;29;20255;-71
2024/01/09 02:54:13;;;;;;;6.53;5.17;;;-0.10;86.20;;;;;;4881372;29;20625;-71
2024/01/09 02:56:39;;;;;;;5.63;5.00;;;0.00;87.60;;;;;;4881787;29;20234;-66
2024/01/09 02:59:05;;;;;;;7.22;5.25;;;-0.20;86.10;;;;;;4898935;29;20289;-71
2024/01/09 03:01:31;;;;;;;7.85;6.00;;;-0.20;84.50;;;;;;4886470;29;20581;-71
2024/01/09 03:03:57;;;;;;;5.82;5.20;;;-0.20;85.70;;;;;;4863067;29;20192;-71
2024/01/09 03:06:23;;;;;;;6.80;5.87;;;-0.30;86.30;;;;;;4898883;29;20227;-70
2024/01/09 03:08:49;;;;;;;6.10;5.50;;;-0.30;90.90;;;;;;4863381;29;20188;-70
2024/01/09 03:11:15;;;;;;;10.20;5.70;;;-0.20;88.60;;;;;;4882972;29;20172;-71
2024/01/09 03:13:41;;;;;;;6.22;5.38;;;-0.20;86.80;;;;;;4898106;29;20223;-70
2024/01/09 03:16:11;;;;;;;7.93;5.33;;;-0.30;86.20;;;;;;4884283;29;20183;-71
2024/01/09 03:18:37;;;;;;;7.72;5.43;;;-0.30;86.60;;;;;;4888196;29;20499;-70
2024/01/09 03:21:03;;;;;;;5.80;5.10;;;-0.30;89.70;;;;;;4879626;29;20183;-70
2024/01/09 03:23:29;;;;;;;12.85;6.32;;;-0.20;87.00;;;;;;4879575;29;20649;-70
2024/01/09 03:25:55;;;;;;;5.63;4.90;;;-0.30;90.80;;;;;;4883599;29;20190;-71
2024/01/09 03:28:20;;;;;;;6.40;5.67;;;-0.20;90.80;;;;;;4898698;29;20410;-71
2024/01/09 03:30:46;;;;;;;5.13;4.63;;;-0.20;91.00;;;;;;4888857;29;20187;-70
2024/01/09 03:33:12;;;;;;;7.80;5.83;;;-0.20;89.10;;;;;;4888486;29;20300;-70
2024/01/09 03:35:38;;;;;;;8.50;5.33;;;-0.10;87.10;;;;;;4898325;29;20323;-71
2024/01/09 03:38:04;;;;;;;8.60;5.78;;;0.00;87.10;;;;;;4884693;29;20232;-71
2024/01/09 03:40:29;;;;;;;7.23;5.40;;;0.00;85.80;;;;;;4882419;29;20263;-70
2024/01/09 03:42:55;;;;;;;6.07;5.37;;;0.00;87.30;;;;;;4897578;29;20191;-69
2024/01/09 03:45:21;;;;;;;8.27;5.13;;;-0.30;86.70;;;;;;4867616;29;20188;-70
2024/01/09 03:47:47;;;;;;;6.72;5.45;;;-0.30;86.30;;;;;;4885997;29;20310;-70
2024/01/09 03:50:13;;;;;;;9.37;5.50;;;-0.20;86.50;;;;;;4889229;29;20215;-70
2024/01/09 03:52:39;;;;;;;9.67;5.43;;;-0.10;87.10;;;;;;4881016;29;20612;-70
2024/01/09 03:55:05;;;;;;;8.03;6.47;;;-0.10;86.20;;;;;;4895206;29;20183;-70
2024/01/09 03:57:31;;;;;;;5.47;4.93;;;-0.10;85.60;;;;;;4873004;29;20645;-70
2024/01/09 03:59:56;;;;;;;7.13;5.33;;;-0.10;84.90;;;;;;4889146;29;20195;-70
2024/01/09 04:02:22;;;;;;;7.57;5.43;;;0.00;84.90;;;;;;4884864;29;20427;-70
2024/01/09 04:04:48;;;;;;;7.20;5.40;;;-0.10;84.90;;;;;;4897164;29;20183;-70
2024/01/09 04:07:14;;;;;;;7.83;5.73;;;0.10;85.30;;;;;;4884441;29;20183;-70
2024/01/09 04:09:39;;;;;;;8.40;5.80;;;0.00;87.20;;;;;;4884861;29;20215;-70
2024/01/09 04:12:05;;;;;;;6.07;5.30;;;0.00;90.10;;;;;;4897448;29;20412;-70
2024/01/09 04:14:31;;;;;;;7.20;5.30;;;0.00;88.40;;;;;;4894681;29;20255;-70
2024/01/09 04:16:57;;;;;;;7.50;5.10;;;0.10;87.70;;;;;;4878851;29;20613;-70
2024/01/09 04:19:23;;;;;;;8.27;5.73;;;0.00;90.30;;;;;;4879051;29;20210;-71
2024/01/09 04:21:48;;;;;;;6.10;5.00;;;-0.10;87.10;;;;;;4878548;29;20523;-70
2024/01/09 04:24:14;;;;;;;7.30;5.17;;;0.00;84.80;;;;;;4886197;29;20195;-70
2024/01/09 04:26:40;;;;;;;5.90;5.13;;;0.10;83.90;;;;;;4883058;29;20187;-70
2024/01/09 04:29:06;;;;;;;8.00;6.07;;;0.00;83.30;;;;;;4896606;29;20653;-68
2024/01/09 04:31:31;;;;;;;6.37;5.47;;;0.00;83.70;;;;;;4893526;29;20447;-70
2024/01/09 04:33:57;;;;;;;6.20;5.60;;;-0.20;83.70;;;;;;4886190;29;20231;-69
2024/01/09 04:36:23;;;;;;;8.10;5.73;;;-0.20;84.20;;;;;;4896500;29;20190;-68
2024/01/09 04:38:48;;;;;;;8.50;5.60;;;-0.30;84.10;;;;;;4868854;29;20653;-68
2024/01/09 04:41:16;;;;;;;7.80;6.20;;;-0.30;83.80;;;;;;4885890;29;20279;-70
2024/01/09 04:43:42;;;;;;;9.73;7.55;;;-0.30;83.40;;;;;;4862404;29;20180;-71
2024/01/09 04:46:08;;;;;;;7.68;6.88;;;-0.40;84.90;;;;;;4878416;29;20305;-70
2024/01/09 04:48:34;;;;;;;8.70;7.37;;;-0.30;84.90;;;;;;4847038;29;20267;-70
2024/01/09 04:51:00;;;;;;;6.03;5.00;;;-0.30;85.10;;;;;;4885300;29;20860;-70
2024/01/09 04:53:25;;;;;;;7.07;6.37;;;-0.30;88.20;;;;;;4889356;29;20187;-70
2024/01/09 04:55:51;;;;;;;8.27;6.40;;;-0.20;86.70;;;;;;4892863;29;20712;-71
2024/01/09 04:58:17;;;;;;;7.13;5.80;;;-0.20;86.30;;;;;;4897254;29;20571;-70
2024/01/09 05:00:42;;;;;;;7.53;6.00;;;-0.30;86.10;;;;;;4881739;29;20194;-71
2024/01/09 05:03:08;;;;;;;9.33;7.80;;;-0.30;86.90;;;;;;4899125;29;20179;-70
2024/01/09 05:05:34;;;;;;;10.13;7.77;;;-0.30;86.70;;;;;;4866480;29;20195;-70
2024/01/09 05:08:00;;;;;;;7.23;5.13;;;-0.30;88.10;;;;;;4882124;29;20664;-70
2024/01/09 05:10:25;;;;;;;13.00;8.57;;;-0.30;90.80;;;;;;4882474;29;20612;-70
2024/01/09 05:12:51;;;;;;;7.93;7.10;;;-0.60;89.90;;;;;;4898910;29;20175;-70
2024/01/09 05:15:17;;;;;;;7.83;7.07;;;-0.40;91.70;;;;;;4872889;29;20597;-70
2024/01/09 05:17:43;;;;;;;9.07;5.90;;;-0.30;90.40;;;;;;4886836;29;20175;-71
2024/01/09 05:20:09;;;;;;;7.83;5.40;;;-0.50;89.80;;;;;;4900522;29;20183;-71
2024/01/09 05:22:35;;;;;;;11.50;6.22;;;-0.40;87.90;;;;;;4882765;29;20198;-70
2024/01/09 05:25:03;;;;;;;9.52;6.05;;;-0.40;87.90;;;;;;4881650;29;20176;-70
2024/01/09 05:27:28;;;;;;;8.90;6.18;;;-0.40;87.30;;;;;;4882270;29;20244;-70
2024/01/09 05:29:54;;;;;;;8.20;7.47;;;-0.40;88.40;;;;;;4893116;29;20179;-70
2024/01/09 05:32:20;;;;;;;9.73;8.73;;;-0.40;87.90;;;;;;4894137;29;20183;-70
2024/01/09 05:34:46;;;;;;;8.50;6.27;;;-0.30;86.90;;;;;;4891721;29;20435;-70
2024/01/09 05:37:11;;;;;;;9.70;7.17;;;-0.50;85.30;;;;;;4879764;29;20270;-70
2024/01/09 05:39:37;;;;;;;6.97;6.27;;;-0.40;87.00;;;;;;4883806;29;20235;-70
2024/01/09 05:42:03;;;;;;;8.10;5.83;;;-0.30;86.90;;;;;;4899801;29;20179;-70
2024/01/09 05:44:29;;;;;;;7.55;6.75;;;-0.40;86.80;;;;;;4888694;29;20227;-71
2024/01/09 05:46:55;;;;;;;9.93;7.17;;;-0.50;86.70;;;;;;4875132;29;20277;-70
2024/01/09 05:49:21;;;;;;;9.07;7.00;;;-0.50;90.60;;;;;;4899991;29;20640;-71
2024/01/09 05:51:46;;;;;;;9.88;8.85;;;-0.60;90.50;;;;;;4895110;29;20255;-70
2024/01/09 05:54:12;;;;;;;8.30;7.43;;;-0.60;90.60;;;;;;4885988;29;20220;-70
2024/01/09 05:56:38;;;;;;;8.67;6.20;;;-0.50;91.30;;;;;;4896237;29;20227;-71
2024/01/09 05:59:04;;;;;;;7.77;7.07;;;-0.50;89.10;;;;;;4898062;29;20211;-70
2024/01/09 06:01:29;;;;;;;7.30;5.60;;;-0.50;90.50;;;;;;4884058;29;20183;-71
2024/01/09 06:03:55;;;;;;;10.23;7.63;;;-0.40;90.10;;;;;;4881674;29;20196;-71
2024/01/09 06:06:21;;;;;;;8.70;7.00;;;-0.40;90.20;;;;;;4898808;29;20204;-70
2024/01/09 06:08:48;;;;;;;8.10;7.00;;;-0.60;88.80;;;;;;4885549;29;20183;-71
2024/01/09 06:11:14;;;;;;;10.18;7.45;;;-0.50;89.40;;;;;;4881639;29;20420;-70
2024/01/09 06:13:41;;;;;;;7.17;6.47;;;-0.50;89.30;;;;;;4887195;29;20586;-71
2024/01/09 06:16:07;;;;;;;9.77;6.30;;;-0.40;87.80;;;;;;4898483;29;20487;-70
2024/01/09 06:18:34;;;;;;;7.70;6.90;;;-0.40;87.90;;;;;;4882809;29;20731;-70
2024/01/09 06:20:59;;;;;;;8.57;7.50;;;-0.40;86.90;;;;;;4893485;29;20188;-70
2024/01/09 06:23:25;;;;;;;8.20;6.10;;;-0.40;86.20;;;;;;4881070;29;20274;-68
2024/01/09 06:25:51;;;;;;;8.47;7.70;;;-0.40;88.30;;;;;;4893119;29;20814;-62
2024/01/09 06:28:17;;;;;;;8.10;7.30;;;-0.40;89.00;;;;;;4883026;29;20187;-69
2024/01/09 06:30:42;;;;;;;11.60;7.77;;;-0.30;88.90;;;;;;4886511;29;20180;-72
2024/01/09 06:33:08;;;;;;;10.20;6.63;;;-0.30;87.20;;;;;;4897488;29;20679;-74
2024/01/09 06:35:34;;;;;;;9.20;6.27;;;-0.40;86.90;;;;;;4893911;29;20632;-68
2024/01/09 06:38:00;;;;;;;9.43;7.00;;;-0.30;86.40;;;;;;4880606;29;20464;-68
2024/01/09 06:40:26;;;;;;;6.97;6.28;;;-0.20;86.00;;;;;;4880676;29;20283;-69
2024/01/09 06:42:52;;;;;;;7.00;5.90;;;-0.30;85.50;;;;;;4880737;29;20212;-63
2024/01/09 06:45:18;;;;;;;6.70;5.65;;;-0.40;85.60;;;;;;4862751;29;20428;-69
2024/01/09 06:47:44;;;;;;;7.47;6.00;;;-0.30;85.10;;;;;;4866422;29;20656;-69
2024/01/09 06:50:10;;;;;;;9.47;6.37;;;-0.30;84.90;;;;;;4897932;29;20814;-68
2024/01/09 06:52:36;;;;;;;8.50;6.70;;;-0.80;83.20;;;;;;4881029;29;20767;-68
2024/01/09 06:55:03;;;;;;;8.15;6.90;;;-0.90;85.40;;;;;;4879146;29;20634;-68
2024/01/09 06:57:29;;;;;;;7.80;6.93;;;-0.80;85.40;;;;;;4879770;29;20315;-69
2024/01/09 06:59:55;;;;;;;8.13;7.00;;;-1.00;84.90;;;;;;4888990;29;20230;-63
2024/01/09 07:02:21;;;;;;;9.07;8.00;;;-0.90;86.20;;;;;;4892507;29;20179;-69
2024/01/09 07:04:47;;;;;;;11.30;6.53;;;-0.80;86.30;;;;;;4871342;29;20636;-69
2024/01/09 07:07:13;;;;;;;7.40;5.97;;;-0.80;86.10;;;;;;4897201;29;21234;-69
2024/01/09 07:09:41;;;;;;;8.07;5.50;;;-0.80;85.10;;;;;;4898780;29;20183;-70
2024/01/09 07:12:09;;;;;;;7.43;6.20;;;-0.80;85.50;;;;;;4881074;29;20201;-69
2024/01/09 07:14:36;;;;;;;7.75;6.53;;;-0.80;86.10;;;;;;4898542;29;20171;-70
2024/01/09 07:17:03;;;;;;;9.98;8.55;;;-0.80;86.80;;;;;;4897900;29;20183;-69
2024/01/09 07:19:30;;;;;;;10.05;7.07;;;-0.90;91.10;;;;;;4898505;29;20207;-70
2024/01/09 07:21:56;;;;;;;10.50;7.85;;;-0.90;90.00;;;;;;4881266;29;20545;-64
2024/01/09 07:24:22;;;;;;;9.40;6.35;;;-0.70;88.90;;;;;;4891052;29;20194;-68
2024/01/09 07:26:48;;;;;;;11.93;7.57;;;-0.90;90.50;;;;;;4895964;29;20188;-69
2024/01/09 07:29:16;;;;;;;10.37;7.67;;;-0.80;90.30;;;;;;4897425;29;20261;-69
2024/01/09 07:31:48;;;;;;;6.97;5.70;;;-0.90;89.20;;;;;;4870956;29;20592;-69
2024/01/09 07:34:14;;;;;;;9.73;6.85;;;-0.90;90.90;;;;;;4882606;29;20178;-70
2024/01/09 07:36:41;;;;;;;6.63;6.03;;;-0.80;92.10;;;;;;4898264;29;20642;-70
2024/01/09 07:39:07;;;;;;;8.35;6.28;;;-0.80;90.70;;;;;;4882648;29;20464;-69
2024/01/09 07:41:34;;;;;;;9.07;8.10;;;-0.60;89.30;;;;;;4895613;29;20191;-69
2024/01/09 07:44:01;;;;;;;7.55;5.82;;;-0.70;87.20;;;;;;4894050;29;20761;-69
2024/01/09 07:46:26;;;;;;;9.50;6.13;;;-0.70;87.60;;;;;;4894160;29;20192;-69
2024/01/09 07:48:52;;;;;;;10.10;7.97;;;-0.60;86.80;;;;;;4894561;29;20206;-69
2024/01/09 07:51:18;;;;;;;13.83;8.00;;;-0.70;86.50;;;;;;4873819;29;20821;-70
2024/01/09 07:53:43;;;;;;;8.67;6.80;;;-0.70;87.00;;;;;;4880263;29;20181;-69
2024/01/09 07:56:17;;;;;;;10.40;7.00;;;-0.60;89.10;;;;;;4886911;29;20224;-69
2024/01/09 07:58:43;;;;;;;12.50;7.00;;;-0.70;90.30;;;;;;4891533;29;20290;-70
2024/01/09 08:01:12;;;;;;;10.02;9.02;;;-0.60;91.00;;;;;;4882648;29;20201;-70
2024/01/09 08:03:40;;;;;;;9.65;8.13;;;-0.60;90.50;;;;;;4883177;29;20560;-70
2024/01/09 08:06:16;;;;;;;10.65;8.07;;;-0.60;93.10;;;;;;4863152;29;20648;-70
2024/01/09 08:08:42;;;;;;;10.48;7.57;;;-0.60;92.60;;;;;;4878941;29;20670;-70
2024/01/09 08:11:09;;;;;;;8.75;6.18;;;-0.60;92.60;;;;;;4876235;29;20217;-70
2024/01/09 08:13:36;;;;;;;11.80;6.85;;;-0.60;92.30;;;;;;4894931;29;20483;-69
2024/01/09 08:16:02;;;;;;;12.57;9.55;;;-0.60;92.10;;;;;;4892212;29;20615;-69
2024/01/09 08:18:29;;;;;;;11.73;9.20;;;-0.70;92.20;;;;;;4891630;29;20677;-69
2024/01/09 08:20:55;;;;;;;9.60;7.10;;;-0.70;91.00;;;;;;4880850;29;20190;-70
2024/01/09 08:23:22;;;;;;;10.32;7.65;;;-0.70;92.00;;;;;;4884076;29;20185;-70
2024/01/09 08:25:48;;;;;;;9.40;7.78;;;-0.70;91.70;;;;;;4862625;29;20507;-69
2024/01/09 08:28:13;;;;;;;9.83;6.67;;;-0.80;92.10;;;;;;4863932;29;20195;-69
2024/01/09 08:30:39;;;;;;;11.63;7.17;;;-0.70;91.30;;;;;;4870026;29;20180;-69
2024/01/09 08:33:06;;;;;;;10.07;6.57;;;-0.70;93.70;;;;;;4896343;29;20272;-69
2024/01/09 08:35:31;;;;;;;9.20;6.72;;;-0.70;93.10;;;;;;4891769;29;20183;-70
2024/01/09 08:37:57;;;;;;;8.50;6.73;;;-0.70;92.00;;;;;;4887502;29;20199;-69
2024/01/09 08:40:23;;;;;;;7.90;6.60;;;-0.60;91.20;;;;;;4896546;29;20254;-69
2024/01/09 08:42:48;;;;;;;9.33;7.40;;;-0.60;92.40;;;;;;4894487;29;20271;-69
2024/01/09 08:45:16;;;;;;;6.97;6.23;;;-0.60;93.90;;;;;;4870191;29;20186;-69
2024/01/09 08:47:41;;;;;;;9.95;6.40;;;-0.70;92.00;;;;;;4890876;29;20310;-69
2024/01/09 08:50:07;;;;;;;9.87;6.90;;;-0.50;91.70;;;;;;4893966;29;20270;-69
2024/01/09 08:52:37;;;;;;;10.60;6.53;;;-0.50;90.90;;;;;;4892078;29;20175;-69
2024/01/09 08:55:04;;;;;;;9.95;7.13;;;-0.40;90.10;;;;;;4892878;29;20431;-61
2024/01/09 08:57:30;;;;;;;8.70;7.30;;;-0.40;91.50;;;;;;4890117;29;20264;-69
2024/01/09 08:59:57;;;;;;;7.57;6.35;;;-0.20;91.40;;;;;;4889368;29;20587;-69
2024/01/09 09:02:24;;;;;;;8.60;7.40;;;0.20;91.30;;;;;;4887485;29;20221;-69
2024/01/09 09:04:50;;;;;;;10.15;7.10;;;1.50;90.00;;;;;;4882810;29;20191;-69
2024/01/09 09:07:18;;;;;;;10.13;8.48;;;3.30;81.90;;;;;;4891218;29;20206;-69
2024/01/09 09:09:44;;;;;;;9.00;6.30;;;4.90;73.30;;;;;;4887925;29;20195;-69
2024/01/09 09:12:11;;;;;;;9.03;8.13;;;6.20;67.20;;;;;;4881974;29;20974;-69
2024/01/09 09:14:37;;;;;;;8.13;7.33;;;7.70;59.60;;;;;;4889797;29;20417;-69
2024/01/09 09:17:03;;;;;;;8.50;7.53;;;9.20;55.30;;;;;;4881266;29;20914;-63
2024/01/09 09:19:31;;;;;;;8.63;7.80;;;9.70;51.30;;;;;;4887896;29;20459;-69
2024/01/09 09:21:57;;;;;;;8.67;7.77;;;10.40;49.20;;;;;;4894420;29;20834;-69
2024/01/09 09:24:23;;;;;;;7.90;7.20;;;10.90;47.50;;;;;;4894580;29;20438;-69
2024/01/09 09:26:49;;;;;;;8.50;7.57;;;10.80;46.70;;;;;;4892205;29;20455;-69
2024/01/09 09:29:15;;;;;;;8.23;7.50;;;11.00;44.90;;;;;;4891222;29;20429;-68
2024/01/09 09:31:40;;;;;;;7.83;7.13;;;10.70;45.30;;;;;;4890845;29;20191;-69
2024/01/09 09:34:07;;;;;;;8.90;8.10;;;10.40;44.90;;;;;;4891757;29;20216;-68
2024/01/09 09:36:33;;;;;;;8.70;7.77;;;10.70;44.00;;;;;;4895526;29;20266;-68
2024/01/09 09:38:59;;;;;;;8.37;7.60;;;11.70;43.80;;;;;;4892816;29;21022;-67
2024/01/09 09:41:25;;;;;;;8.00;7.20;;;13.10;41.60;;;;;;4871368;29;20734;-68
2024/01/09 09:43:56;;;;;;;12.73;9.50;;;14.10;39.70;;;;;;4862109;29;20195;-68
2024/01/09 09:46:28;;;;;;;10.97;9.33;;;15.00;37.00;;;;;;4890642;29;20420;-65
2024/01/09 09:48:55;;;;;;;9.53;8.73;;;16.00;35.70;;;;;;4900277;29;20765;-68
2024/01/09 09:51:22;;;;;;;8.70;8.00;;;17.10;33.60;;;;;;4882630;29;20416;-68
2024/01/09 09:53:48;;;;;;;9.93;9.13;;;16.90;31.70;;;;;;4900105;29;20407;-68
2024/01/09 09:56:14;;;;;;;9.77;8.53;;;16.40;31.40;;;;;;4898991;29;20474;-68
2024/01/09 09:58:40;;;;;;;8.27;7.30;;;16.40;31.40;;;;;;4883239;29;20211;-68
2024/01/09 10:01:10;;;;;;;10.17;9.30;;;15.90;31.60;;;;;;4897374;29;20187;-63
2024/01/09 10:03:38;;;;;;;9.53;8.73;;;15.20;30.90;;;;;;4899255;29;20823;-71
2024/01/09 10:06:05;;;;;;;9.40;8.40;;;14.80;33.10;;;;;;4899469;29;20774;-63
2024/01/09 10:08:33;;;;;;;8.13;7.43;;;14.80;32.00;;;;;;4899338;29;20487;-71
2024/01/09 10:11:00;;;;;;;11.20;10.17;;;14.50;32.50;;;;;;4899786;29;20443;-71
2024/01/09 10:13:25;;;;;;;10.60;9.60;;;13.80;33.20;;;;;;4897985;29;20427;-70
2024/01/09 10:16:02;;;;;;;9.13;8.13;;;13.80;35.00;;;;;;4883439;29;20994;-71
2024/01/09 10:18:29;;;;;;;9.30;8.40;;;13.30;35.50;;;;;;4901102;29;20541;-71
2024/01/09 10:20:59;;;;;;;10.10;9.10;;;13.20;34.90;;;;;;4901443;29;20516;-72
2024/01/09 10:23:29;;;;;;;9.23;8.43;;;12.50;35.10;;;;;;4917712;29;20427;-71
2024/01/09 10:25:55;;;;;;;8.43;7.70;;;12.40;35.40;;;;;;4918353;29;20797;-72
2024/01/09 10:28:22;;;;;;;10.17;8.63;;;12.10;34.80;;;;;;4918260;29;20476;-72
2024/01/09 10:30:51;;;;;;;12.90;11.50;;;11.70;37.70;;;;;;4910468;29;20439;-68
2024/01/09 10:33:17;;;;;;;60.10;36.10;;;11.90;52.80;;;;;;4892381;29;20520;-68
2024/01/09 10:35:43;;;;;;;25.30;17.93;;;12.70;75.40;;;;;;4885617;29;20963;-68
2024/01/09 10:38:13;;;;;;;15.17;12.97;;;13.10;63.90;;;;;;4876055;29;20462;-66
2024/01/09 10:40:39;;;;;;;19.07;15.20;;;13.50;50.40;;;;;;4882996;29;20416;-66
2024/01/09 10:43:05;;;;;;;62.40;38.90;;;13.80;60.80;;;;;;4898449;29;20423;-67
2024/01/09 10:45:32;;;;;;;17.13;12.77;;;14.10;56.20;;;;;;4894830;29;20185;-70
2024/01/09 10:47:58;;;;;;;38.33;24.33;;;14.30;57.10;;;;;;4895370;29;20507;-64
2024/01/09 10:50:25;;;;;;;46.07;27.80;;;14.20;49.60;;;;;;4867492;29;20450;-64
2024/01/09 10:52:52;;;;;;;21.90;17.10;;;14.20;62.50;;;;;;4897108;29;20495;-65
2024/01/09 10:55:22;;;;;;;38.80;26.50;;;14.80;53.40;;;;;;4896115;29;20443;-65
2024/01/09 10:57:47;;;;;;;40.27;25.40;;;15.30;53.70;;;;;;4898573;29;20421;-65
2024/01/09 11:00:14;;;;;;;37.30;26.37;;;15.10;54.60;;;;;;4907451;29;20933;-65
2024/01/09 11:02:40;;;;;;;18.50;15.47;;;15.80;57.80;;;;;;4918164;29;20253;-65
2024/01/09 11:05:07;;;;;;;38.23;28.13;;;15.80;50.50;;;;;;4898564;29;20441;-63
2024/01/09 11:07:33;;;;;;;32.13;22.47;;;15.70;53.40;;;;;;4898578;29;20449;-64
2024/01/09 11:10:00;;;;;;;36.70;24.52;;;15.80;54.20;;;;;;4893437;29;20429;-65
2024/01/09 11:12:40;;;;;;;342.10;223.18;;;16.00;55.00;;;;;;4869658;29;20486;-65
2024/01/09 11:15:31;;;;;;;57.97;39.20;;;15.90;49.50;;;;;;4889419;29;20185;-64
2024/01/09 11:18:08;;;;;;;31.10;20.63;;;15.90;51.70;;;;;;4897533;29;20533;-64
2024/01/09 11:20:34;;;;;;;14.37;12.87;;;15.50;47.70;;;;;;4899171;29;20443;-64
2024/01/09 11:23:00;;;;;;;12.53;11.30;;;15.30;47.80;;;;;;4898929;29;20450;-65
2024/01/09 11:25:29;;;;;;;18.13;13.37;;;15.10;47.10;;;;;;4879405;29;20428;-64
2024/01/09 11:27:55;;;;;;;16.30;13.00;;;15.20;51.20;;;;;;4894426;29;20198;-64
2024/01/09 11:30:29;;;;;;;27.57;22.00;;;14.80;52.20;;;;;;4896614;29;20842;-65
2024/01/09 11:33:33;;;;;;;20.33;14.70;;;14.90;55.10;;;;;;4888255;29;20441;-64
2024/01/09 11:36:06;;;;;;;8.50;7.60;;;15.00;55.50;;;;;;4886320;29;20529;-77
2024/01/09 11:38:32;;;;;;;9.20;8.30;;;14.30;37.20;;;;;;4881333;29;21039;-77
2024/01/09 11:41:06;;;;;;;8.43;7.70;;;13.60;38.70;;;;;;4895130;29;20912;-76
2024/01/09 11:43:57;;;;;;;9.40;8.40;;;12.60;37.80;;;;;;4879605;29;20429;-76
2024/01/09 11:46:24;;;;;;;6.93;6.23;;;11.40;38.70;;;;;;4878769;29;20412;-73
2024/01/09 11:48:50;;;;;;;7.60;6.70;;;10.70;38.70;;;;;;4888860;29;20450;-73
2024/01/09 11:51:17;;;;;;;6.77;6.17;;;10.10;40.30;;;;;;4897193;29;20486;-72
2024/01/09 11:53:43;;;;;;;7.60;6.40;;;9.90;41.90;;;;;;4894294;29;20435;-67
2024/01/09 11:56:13;;;;;;;9.33;7.50;;;9.50;44.10;;;;;;4892651;29;20522;-67
2024/01/09 11:58:39;;;;;;;10.80;6.40;;;9.10;42.10;;;;;;4890143;29;20494;-72
2024/01/09 12:01:06;;;;;;;6.90;6.20;;;8.90;44.40;;;;;;4890992;29;20842;-72
2024/01/09 12:03:35;;;;;;;6.83;6.20;;;8.60;43.60;;;;;;4883736;29;20521;-72
2024/01/09 12:06:04;;;;;;;10.17;7.47;;;8.50;44.30;;;;;;4867861;29;20439;-72
2024/01/09 12:08:32;;;;;;;7.73;6.80;;;8.30;43.60;;;;;;4875650;29;21138;-72
2024/01/09 12:10:58;;;;;;;6.90;6.20;;;8.00;47.60;;;;;;4884663;29;20423;-72
2024/01/09 12:13:23;;;;;;;8.13;6.47;;;7.70;44.00;;;;;;4882705;29;20416;-73
2024/01/09 12:15:50;;;;;;;6.83;6.10;;;7.60;46.60;;;;;;4890287;29;20545;-72
2024/01/09 12:18:15;;;;;;;7.67;6.97;;;7.60;47.30;;;;;;4879327;29;20606;-67
2024/01/09 12:20:41;;;;;;;9.03;6.50;;;7.50;46.80;;;;;;4879067;29;20416;-74
2024/01/09 12:23:07;;;;;;;8.40;6.80;;;7.40;44.40;;;;;;4879296;29;20533;-74
2024/01/09 12:25:34;;;;;;;9.17;6.80;;;7.30;45.70;;;;;;4878195;29;20419;-74
2024/01/09 12:28:01;;;;;;;7.50;6.80;;;7.30;44.70;;;;;;4879058;29;20847;-73
2024/01/09 12:30:28;;;;;;;8.40;7.63;;;7.20;46.20;;;;;;4878437;29;20551;-72
2024/01/09 12:32:54;;;;;;;217.73;113.70;;;7.20;47.30;;;;;;4879285;29;20416;-72
2024/01/09 12:35:21;;;;;;;15.13;11.53;;;7.20;46.00;;;;;;4885078;29;20523;-72
2024/01/09 12:37:47;;;;;;;8.17;7.37;;;7.30;47.00;;;;;;4897563;29;20411;-73
2024/01/09 12:40:16;;;;;;;6.70;5.97;;;7.40;47.10;;;;;;4897139;29;20407;-63
2024/01/09 12:42:42;;;;;;;7.40;6.70;;;7.30;45.10;;;;;;4897348;29;20419;-74